| time (UTC) | temp C | wind direction | speed KPH | gust KPH | rain 1hr cm | rain 24hr cm | rain mn cm | humidity % | barometer mb |
| 20260503033052 | 12 | 252 | 12.9 | 27.4 | 0.00 | 0.00 | 0.00 | 54 | 1015.6 |
| 20260503031542 | 14 | 264 | 11.3 | 17.7 | 0.00 | 0.00 | 0.00 | 48 | 1015.4 |
| 20260503030039 | 14 | 338 | 1.6 | 4.8 | 0.00 | 0.00 | 0.00 | 47 | 1015.3 |
| 20260503024539 | 13 | 8 | 1.6 | 3.2 | 0.00 | 0.00 | 0.00 | 51 | 1015.2 |
| 20260503023036 | 13 | 35 | 0.0 | 3.2 | 0.00 | 0.00 | 0.00 | 48 | 1015.1 |
| 20260503021534 | 13 | 77 | 0.0 | 3.2 | 0.00 | 0.00 | 0.00 | 48 | 1014.9 |
| 20260503020032 | 14 | 85 | 1.6 | 4.8 | 0.00 | 0.00 | 0.00 | 47 | 1014.9 |
| 20260503014531 | 15 | 67 | 3.2 | 4.8 | 0.00 | 0.00 | 0.00 | 46 | 1015.0 |
| 20260503013029 | 16 | 84 | 3.2 | 8.0 | 0.00 | 0.00 | 0.00 | 42 | 1015.0 |
| 20260503011532 | 17 | 124 | 6.4 | 11.3 | 0.00 | 0.00 | 0.00 | 39 | 1015.0 |
| 20260503010027 | 17 | 112 | 4.8 | 8.0 | 0.00 | 0.00 | 0.00 | 39 | 1015.1 |
| 20260503004524 | 17 | 111 | 6.4 | 9.7 | 0.00 | 0.00 | 0.00 | 40 | 1015.1 |
| 20260503003021 | 17 | 257 | 0.0 | 1.6 | 0.00 | 0.00 | 0.00 | 39 | 1015.4 |
| 20260503001519 | 17 | 261 | 3.2 | 11.3 | 0.00 | 0.00 | 0.00 | 39 | 1015.6 |
| 20260503000018 | 17 | 313 | 1.6 | 8.0 | 0.00 | 0.00 | 0.00 | 39 | 1015.7 |
| 20260502234529 | 17 | 122 | 0.0 | 6.4 | 0.00 | 0.00 | 0.00 | 40 | 1015.8 |
| 20260502233014 | 17 | 111 | 3.2 | 8.0 | 0.00 | 0.00 | 0.00 | 39 | 1015.8 |
| 20260502231511 | 18 | 127 | 1.6 | 9.7 | 0.00 | 0.00 | 0.00 | 39 | 1016.0 |
| 20260502230006 | 17 | 120 | 0.0 | 8.0 | 0.00 | 0.00 | 0.00 | 40 | 1016.1 |
| 20260502224505 | 17 | 200 | 0.0 | 11.3 | 0.00 | 0.00 | 0.00 | 40 | 1016.3 |
| 20260502223005 | 17 | 80 | 3.2 | 9.7 | 0.00 | 0.00 | 0.00 | 42 | 1016.4 |
| 20260502221502 | 17 | 70 | 4.8 | 8.0 | 0.00 | 0.00 | 0.00 | 40 | 1016.6 |
| 20260502220146 | 17 | 124 | 1.6 | 8.0 | 0.00 | 0.00 | 0.00 | 40 | 1016.7 |
| 20260502220004 | 17 | 156 | 1.6 | 8.0 | 0.00 | 0.00 | 0.00 | 40 | 1016.6 |
| 20260502214603 | 17 | 127 | 1.6 | 11.3 | 0.00 | 0.00 | 0.00 | 42 | 1016.9 |
| 20260502213102 | 17 | 155 | 1.6 | 6.4 | 0.00 | 0.00 | 0.00 | 42 | 1017.1 |
| 20260502211554 | 16 | 134 | 6.4 | 12.9 | 0.00 | 0.00 | 0.00 | 44 | 1017.3 |
| 20260502210101 | 16 | 105 | 9.7 | 16.1 | 0.00 | 0.00 | 0.00 | 43 | 1017.5 |
| 20260502204559 | 16 | 122 | 3.2 | 17.7 | 0.00 | 0.00 | 0.00 | 43 | 1017.6 |
| 20260502203101 | 17 | 195 | 3.2 | 9.7 | 0.00 | 0.00 | 0.00 | 42 | 1017.7 |
| 20260502201546 | 17 | 329 | 1.6 | 11.3 | 0.00 | 0.00 | 0.00 | 41 | 1017.8 |
| 20260502200043 | 17 | 69 | 0.0 | 12.9 | 0.00 | 0.00 | 0.00 | 42 | 1017.9 |
| 20260502194640 | 17 | 351 | 9.7 | 14.5 | 0.00 | 0.00 | 0.00 | 43 | 1018.1 |
| 20260502193037 | 16 | 25 | 3.2 | 9.7 | 0.00 | 0.00 | 0.00 | 44 | 1018.4 |
| 20260502191540 | 15 | 264 | 3.2 | 16.1 | 0.00 | 0.00 | 0.00 | 45 | 1018.6 |
| 20260502190032 | 15 | 33 | 6.4 | 14.5 | 0.00 | 0.00 | 0.00 | 46 | 1018.7 |
| 20260502184537 | 15 | 351 | 4.8 | 12.9 | 0.00 | 0.00 | 0.00 | 45 | 1018.7 |
| 20260502183028 | 15 | 21 | 4.8 | 14.5 | 0.00 | 0.00 | 0.00 | 45 | 1018.6 |
| 20260502181531 | 16 | 321 | 4.8 | 14.5 | 0.00 | 0.00 | 0.00 | 43 | 1018.7 |
| 20260502163027 | 16 | 42 | 9.7 | 27.4 | 0.00 | 0.00 | 0.00 | 46 | 1018.7 |
| 20260502161510 | 16 | 37 | 9.7 | 22.5 | 0.00 | 0.00 | 0.00 | 46 | 1018.8 |
| 20260502151559 | 15 | 333 | 8.0 | 17.7 | 0.00 | 0.00 | 0.00 | 48 | 1018.8 |
| 20260502123015 | 10 | 44 | 9.7 | 17.7 | 0.00 | 0.00 | 0.00 | 54 | 1018.0 |
| 20260502121511 | 10 | 68 | 12.9 | 25.7 | 0.00 | 0.00 | 0.00 | 54 | 1017.6 |
| 20260502114503 | 10 | 64 | 22.5 | 32.2 | 0.00 | 0.00 | 0.00 | 53 | 1017.0 |
| 20260502113100 | 10 | 68 | 22.5 | 33.8 | 0.00 | 0.00 | 0.00 | 53 | 1016.9 |
| 20260502111555 | 10 | 73 | 20.9 | 33.8 | 0.00 | 0.00 | 0.00 | 53 | 1016.8 |
| 20260502110049 | 10 | 77 | 25.7 | 32.2 | 0.00 | 0.00 | 0.00 | 51 | 1016.5 |
| 20260502104543 | 10 | 68 | 22.5 | 30.6 | 0.00 | 0.00 | 0.00 | 50 | 1016.1 |
| 20260502103039 | 11 | 77 | 24.1 | 32.2 | 0.00 | 0.00 | 0.00 | 48 | 1015.9 |
| 20260502101534 | 11 | 79 | 22.5 | 30.6 | 0.00 | 0.00 | 0.00 | 48 | 1015.9 |
| 20260502091522 | 9 | 300 | 1.6 | 8.0 | 0.00 | 0.00 | 0.00 | 49 | 1015.6 |
| 20260502070058 | 10 | 340 | 6.4 | 9.7 | 0.00 | 0.00 | 0.00 | 44 | 1015.2 |
| 20260502064550 | 11 | 345 | 9.7 | 12.9 | 0.00 | 0.00 | 0.00 | 43 | 1015.1 |
| 20260502063044 | 9 | 354 | 8.0 | 9.7 | 0.00 | 0.00 | 0.00 | 46 | 1015.1 |
| 20260502061540 | 8 | 47 | 3.2 | 8.0 | 0.00 | 0.00 | 0.00 | 45 | 1015.0 |
| 20260502060034 | 9 | 32 | 1.6 | 9.7 | 0.00 | 0.00 | 0.00 | 43 | 1015.0 |
| 20260502054532 | 13 | 38 | 6.4 | 17.7 | 0.00 | 0.00 | 0.00 | 36 | 1015.0 |
| 20260502053031 | 14 | 328 | 12.9 | 17.7 | 0.00 | 0.00 | 0.00 | 35 | 1015.0 |
| 20260502051530 | 14 | 327 | 12.9 | 20.9 | 0.00 | 0.00 | 0.00 | 34 | 1015.0 |
| 20260502050032 | 13 | 359 | 14.5 | 20.9 | 0.00 | 0.00 | 0.00 | 35 | 1015.0 |
| 20260502044524 | 13 | 354 | 12.9 | 16.1 | 0.00 | 0.00 | 0.00 | 34 | 1015.0 |
| 20260502043023 | 13 | 348 | 9.7 | 14.5 | 0.00 | 0.00 | 0.00 | 33 | 1014.9 |
| 20260502041521 | 13 | 340 | 9.7 | 11.3 | 0.00 | 0.00 | 0.00 | 32 | 1014.9 |
| 20260502040018 | 12 | 341 | 8.0 | 12.9 | 0.00 | 0.00 | 0.00 | 32 | 1014.9 |
| 20260502034527 | 13 | 323 | 8.0 | 12.9 | 0.00 | 0.00 | 0.00 | 32 | 1014.8 |